METAR Data
IDs: Format: Raw Decoded Include TAF

Data at: 1332 UTC 14 Dec 2019

PAVL 141253Z AUTO 08006KT 8SM CLR M11/M13 A2959 RMK AO2 SLP020 T11061128 TSNO $
PAVL 141153Z AUTO 11010KT 8SM CLR M08/M11 A2958 RMK AO2 SLP018 T10781111 11061 21106 51014 TSNO $
PAVL 141053Z AUTO 09008KT 8SM CLR M10/M13 A2958 RMK AO2 SLP017 T11001128 TSNO $
PAVL 140953Z AUTO 13012KT 8SM FEW060 M07/M11 A2956 RMK AO2 SLP011 T10721106 TSNO $
PAVL 140853Z AUTO 12013G18KT 8SM BKN065 M07/M10 A2954 RMK AO2 SLP004 T10671100 410611172 53014 TSNO $
PAVL 140753Z AUTO 12010KT 8SM CLR M09/M12 A2953 RMK AO2 SLP998 T10891117 TSNO $
PAVL 140653Z AUTO 07008G20KT 8SM FEW037 M09/M12 A2952 RMK AO2 PK WND 14026/0600 SLP995 T10891117 TSNO $
PAVL 140553Z AUTO 13019G27KT 8SM BKN055 M07/M11 A2950 RMK AO2 PK WND 14031/0519 SLP990 T10671106 11067 21133 53014 TSNO $
PAVL 140453Z AUTO 13019G29KT 8SM OVC033 M07/M11 A2948 RMK AO2 PK WND 14031/0442 SLP983 T10671106 TSNO $
PAVL 140353Z AUTO 12014KT 8SM BKN038 BKN048 M08/M12 A2946 RMK AO2 SLP978 T10781117 TSNO $
PAVL 140253Z AUTO 10014KT 8SM BKN042 OVC050 M07/M11 A2946 RMK AO2 SLP976 T10721111 53003 TSNO $
PAVL 140153Z AUTO 09015KT 8SM OVC050 M08/M12 A2945 RMK AO2 SLP973 T10781117 TSNO $
PAVL 140053Z AUTO 06008KT 8SM OVC045 M09/M14 A2945 RMK AO2 SLP972 T10941139 TSNO $
PAVL 132353Z AUTO 08003KT 7SM CLR M13/M16 A2945 RMK AO2 SLP973 I6000 T11281161 11067 21172 50003 TSNO $
PAVL 132153Z AUTO 08004KT 8SM CLR M12/M16 A2945 RMK AO2 SLP974 T11221156 TSNO $
PAVL 132053Z AUTO 05007KT 8SM CLR M16/M18 A2944 RMK AO2 SLP970 I3000 T11611178 53006 TSNO $
PAVL 131953Z AUTO 05006KT 8SM CLR M17/M18 A2943 RMK AO2 SLP966 I1000 T11671178 TSNO $
PAVL 131853Z AUTO 06007KT 8SM CLR M17/M18 A2942 RMK AO2 SLP964 T11721183 TSNO $
PAVL 131753Z AUTO 07006KT 8SM CLR M17/M18 A2942 RMK AO2 SLP963 I1000 I6000 T11671183 11106 21167 53003 TSNO $
PAVL 131553Z AUTO 08007KT 8SM CLR M16/M17 A2941 RMK AO2 SLP959 T11561172 TSNO $
PAVL 131453Z AUTO 05006KT 8SM CLR M16/M17 A2941 RMK AO2 SLP961 T11561172 56009 TSNO $
PAVL 131353Z AUTO 10005KT 8SM CLR M13/M14 A2942 RMK AO2 SLP962 T11331139 TSNO $
PAVL 131253Z AUTO 05006KT 8SM CLR M11/M13 A2942 RMK AO2 SLP963 T11111128 TSNO $
PAVL 131153Z AUTO 08007KT 8SM CLR M12/M14 A2944 RMK AO2 SLP970 T11221139 11061 21128 56007 TSNO $
PAVL 131053Z AUTO 06003KT 8SM CLR M12/M14 A2944 RMK AO2 SLP970 T11171139 TSNO $
PAVL 130953Z AUTO 08004KT 8SM CLR M12/M14 A2946 RMK AO2 SLP975 T11221139 TSNO $
PAVL 130853Z AUTO 04006KT 8SM CLR M11/M12 A2946 RMK AO2 SLP977 T11061122 410111111 55004 TSNO $
PAVL 130753Z AUTO 06009KT 8SM CLR M10/M12 A2946 RMK AO2 SLP976 T11001122 TSNO $
PAVL 130553Z AUTO 07009KT 8SM CLR M09/M12 A2947 RMK AO2 SLP981 T10891117 11044 21100 58003 TSNO $
PAVL 130453Z AUTO 05010KT 8SM CLR M08/M10 A2948 RMK AO2 SLP983 T10781100 TSNO $
PAVL 130353Z AUTO 06005KT 8SM CLR M09/M11 A2948 RMK AO2 SLP985 T10941111 TSNO $
PAVL 130253Z AUTO 08009KT 8SM CLR M06/M08 A2948 RMK AO2 SLP983 T10561078 57006 TSNO $
PAVL 130153Z AUTO 03006KT 8SM CLR M08/M10 A2949 RMK AO2 SLP986 T10831100 TSNO $